sensor_id;sensor_type;location;lat;lon;timestamp;P1;durP1;ratioP1;P2;durP2;ratioP2
66012;SDS011;52783;50.502;8.190;2023-03-16T00:01:46;8.75;;;4.50;;
66012;SDS011;52783;50.502;8.190;2023-03-16T00:04:12;6.60;;;3.88;;
66012;SDS011;52783;50.502;8.190;2023-03-16T00:06:37;8.82;;;3.97;;
66012;SDS011;52783;50.502;8.190;2023-03-16T00:09:03;10.80;;;4.75;;
66012;SDS011;52783;50.502;8.190;2023-03-16T00:11:28;9.02;;;4.30;;
66012;SDS011;52783;50.502;8.190;2023-03-16T00:13:54;7.72;;;3.45;;
66012;SDS011;52783;50.502;8.190;2023-03-16T00:16:20;4.53;;;3.13;;
66012;SDS011;52783;50.502;8.190;2023-03-16T00:18:46;9.48;;;4.03;;
66012;SDS011;52783;50.502;8.190;2023-03-16T00:21:12;6.65;;;3.58;;
66012;SDS011;52783;50.502;8.190;2023-03-16T00:23:38;6.32;;;3.42;;
66012;SDS011;52783;50.502;8.190;2023-03-16T00:26:05;5.90;;;3.20;;
66012;SDS011;52783;50.502;8.190;2023-03-16T00:28:33;7.05;;;3.70;;
66012;SDS011;52783;50.502;8.190;2023-03-16T00:31:03;11.07;;;3.65;;
66012;SDS011;52783;50.502;8.190;2023-03-16T00:33:31;9.25;;;3.90;;
66012;SDS011;52783;50.502;8.190;2023-03-16T00:36:01;4.93;;;2.95;;
66012;SDS011;52783;50.502;8.190;2023-03-16T00:38:32;7.57;;;3.65;;
66012;SDS011;52783;50.502;8.190;2023-03-16T00:41:03;6.53;;;3.08;;
66012;SDS011;52783;50.502;8.190;2023-03-16T00:43:30;6.15;;;3.63;;
66012;SDS011;52783;50.502;8.190;2023-03-16T00:46:05;8.02;;;4.28;;
66012;SDS011;52783;50.502;8.190;2023-03-16T00:48:33;6.72;;;3.92;;
66012;SDS011;52783;50.502;8.190;2023-03-16T00:51:04;5.90;;;3.67;;
66012;SDS011;52783;50.502;8.190;2023-03-16T00:53:34;6.00;;;4.20;;
66012;SDS011;52783;50.502;8.190;2023-03-16T00:56:01;8.45;;;4.15;;
66012;SDS011;52783;50.502;8.190;2023-03-16T00:58:28;8.40;;;3.75;;
66012;SDS011;52783;50.502;8.190;2023-03-16T01:00:59;7.72;;;4.18;;
66012;SDS011;52783;50.502;8.190;2023-03-16T01:03:32;12.57;;;4.35;;
66012;SDS011;52783;50.502;8.190;2023-03-16T01:06:05;8.57;;;4.47;;
66012;SDS011;52783;50.502;8.190;2023-03-16T01:08:34;11.82;;;4.63;;
66012;SDS011;52783;50.502;8.190;2023-03-16T01:11:04;6.88;;;4.18;;
66012;SDS011;52783;50.502;8.190;2023-03-16T01:13:31;10.27;;;5.20;;
66012;SDS011;52783;50.502;8.190;2023-03-16T01:15:58;10.98;;;4.60;;
66012;SDS011;52783;50.502;8.190;2023-03-16T01:18:24;7.97;;;4.43;;
66012;SDS011;52783;50.502;8.190;2023-03-16T01:20:51;12.07;;;5.20;;
66012;SDS011;52783;50.502;8.190;2023-03-16T01:23:17;16.33;;;4.97;;
66012;SDS011;52783;50.502;8.190;2023-03-16T01:25:44;5.30;;;3.53;;
66012;SDS011;52783;50.502;8.190;2023-03-16T01:28:17;5.75;;;4.10;;
66012;SDS011;52783;50.502;8.190;2023-03-16T01:30:48;11.75;;;4.70;;
66012;SDS011;52783;50.502;8.190;2023-03-16T01:33:17;11.07;;;4.65;;
66012;SDS011;52783;50.502;8.190;2023-03-16T01:35:56;10.50;;;4.68;;
66012;SDS011;52783;50.502;8.190;2023-03-16T01:38:24;7.25;;;4.38;;
66012;SDS011;52783;50.502;8.190;2023-03-16T01:40:50;12.82;;;4.65;;
66012;SDS011;52783;50.502;8.190;2023-03-16T01:43:18;11.43;;;5.05;;
66012;SDS011;52783;50.502;8.190;2023-03-16T01:48:30;8.55;;;4.60;;
66012;SDS011;52783;50.502;8.190;2023-03-16T01:51:11;10.27;;;4.60;;
66012;SDS011;52783;50.502;8.190;2023-03-16T01:53:42;11.68;;;4.78;;
66012;SDS011;52783;50.502;8.190;2023-03-16T01:56:11;9.68;;;5.07;;
66012;SDS011;52783;50.502;8.190;2023-03-16T01:58:39;8.60;;;4.50;;
66012;SDS011;52783;50.502;8.190;2023-03-16T02:01:07;11.13;;;5.03;;
66012;SDS011;52783;50.502;8.190;2023-03-16T02:03:34;12.15;;;5.28;;
66012;SDS011;52783;50.502;8.190;2023-03-16T02:06:07;19.38;;;6.20;;
66012;SDS011;52783;50.502;8.190;2023-03-16T02:08:37;10.88;;;4.88;;
66012;SDS011;52783;50.502;8.190;2023-03-16T02:11:04;12.20;;;5.70;;
66012;SDS011;52783;50.502;8.190;2023-03-16T02:13:32;11.43;;;5.50;;
66012;SDS011;52783;50.502;8.190;2023-03-16T02:16:00;12.07;;;5.18;;
66012;SDS011;52783;50.502;8.190;2023-03-16T02:18:27;10.80;;;5.65;;
66012;SDS011;52783;50.502;8.190;2023-03-16T02:26:02;15.05;;;4.85;;
66012;SDS011;52783;50.502;8.190;2023-03-16T02:28:44;13.23;;;5.03;;
66012;SDS011;52783;50.502;8.190;2023-03-16T02:31:35;10.77;;;4.93;;
66012;SDS011;52783;50.502;8.190;2023-03-16T02:34:01;13.18;;;5.47;;
66012;SDS011;52783;50.502;8.190;2023-03-16T02:36:27;13.13;;;5.07;;
66012;SDS011;52783;50.502;8.190;2023-03-16T02:38:54;9.38;;;5.10;;
66012;SDS011;52783;50.502;8.190;2023-03-16T02:41:20;12.75;;;4.70;;
66012;SDS011;52783;50.502;8.190;2023-03-16T02:43:47;10.43;;;5.05;;
66012;SDS011;52783;50.502;8.190;2023-03-16T02:46:18;11.23;;;5.15;;
66012;SDS011;52783;50.502;8.190;2023-03-16T02:51:35;11.00;;;5.03;;
66012;SDS011;52783;50.502;8.190;2023-03-16T02:54:00;9.88;;;4.90;;
66012;SDS011;52783;50.502;8.190;2023-03-16T02:56:26;8.68;;;4.68;;
66012;SDS011;52783;50.502;8.190;2023-03-16T02:58:51;10.02;;;5.15;;
66012;SDS011;52783;50.502;8.190;2023-03-16T03:01:17;13.23;;;5.07;;
66012;SDS011;52783;50.502;8.190;2023-03-16T03:03:42;13.98;;;5.68;;
66012;SDS011;52783;50.502;8.190;2023-03-16T03:06:08;13.75;;;4.57;;
66012;SDS011;52783;50.502;8.190;2023-03-16T03:08:34;9.57;;;4.78;;
66012;SDS011;52783;50.502;8.190;2023-03-16T03:10:59;9.73;;;4.88;;
66012;SDS011;52783;50.502;8.190;2023-03-16T03:13:25;18.30;;;5.50;;
66012;SDS011;52783;50.502;8.190;2023-03-16T03:15:51;15.52;;;5.18;;
66012;SDS011;52783;50.502;8.190;2023-03-16T03:18:16;19.20;;;5.57;;
66012;SDS011;52783;50.502;8.190;2023-03-16T03:20:43;10.48;;;5.00;;
66012;SDS011;52783;50.502;8.190;2023-03-16T03:23:08;14.25;;;5.93;;
66012;SDS011;52783;50.502;8.190;2023-03-16T03:25:34;9.20;;;5.00;;
66012;SDS011;52783;50.502;8.190;2023-03-16T03:28:00;9.35;;;4.45;;
66012;SDS011;52783;50.502;8.190;2023-03-16T03:30:27;10.30;;;5.70;;
66012;SDS011;52783;50.502;8.190;2023-03-16T03:32:53;10.80;;;5.72;;
66012;SDS011;52783;50.502;8.190;2023-03-16T03:35:19;9.77;;;5.82;;
66012;SDS011;52783;50.502;8.190;2023-03-16T03:37:45;17.80;;;5.13;;
66012;SDS011;52783;50.502;8.190;2023-03-16T03:40:12;15.50;;;6.53;;
66012;SDS011;52783;50.502;8.190;2023-03-16T03:42:39;16.65;;;6.15;;
66012;SDS011;52783;50.502;8.190;2023-03-16T03:45:05;11.93;;;5.40;;
66012;SDS011;52783;50.502;8.190;2023-03-16T03:47:31;13.02;;;6.03;;
66012;SDS011;52783;50.502;8.190;2023-03-16T03:49:57;18.60;;;6.22;;
66012;SDS011;52783;50.502;8.190;2023-03-16T03:52:23;16.80;;;5.90;;
66012;SDS011;52783;50.502;8.190;2023-03-16T03:54:48;12.52;;;5.93;;
66012;SDS011;52783;50.502;8.190;2023-03-16T03:57:14;12.18;;;6.30;;
66012;SDS011;52783;50.502;8.190;2023-03-16T03:59:39;13.15;;;5.72;;
66012;SDS011;52783;50.502;8.190;2023-03-16T04:02:08;17.50;;;5.80;;
66012;SDS011;52783;50.502;8.190;2023-03-16T04:04:34;9.30;;;5.47;;
66012;SDS011;52783;50.502;8.190;2023-03-16T04:07:00;10.20;;;5.05;;
66012;SDS011;52783;50.502;8.190;2023-03-16T04:09:26;8.95;;;5.50;;
66012;SDS011;52783;50.502;8.190;2023-03-16T04:11:51;16.83;;;5.38;;
66012;SDS011;52783;50.502;8.190;2023-03-16T04:14:17;13.98;;;6.28;;
66012;SDS011;52783;50.502;8.190;2023-03-16T04:16:42;21.27;;;5.68;;
66012;SDS011;52783;50.502;8.190;2023-03-16T04:19:08;11.35;;;5.80;;
66012;SDS011;52783;50.502;8.190;2023-03-16T04:21:35;12.23;;;5.72;;
66012;SDS011;52783;50.502;8.190;2023-03-16T04:24:01;13.90;;;6.53;;
66012;SDS011;52783;50.502;8.190;2023-03-16T04:26:29;14.30;;;5.72;;
66012;SDS011;52783;50.502;8.190;2023-03-16T04:28:56;12.68;;;6.82;;
66012;SDS011;52783;50.502;8.190;2023-03-16T04:31:21;12.73;;;5.85;;
66012;SDS011;52783;50.502;8.190;2023-03-16T04:33:47;9.75;;;5.60;;
66012;SDS011;52783;50.502;8.190;2023-03-16T04:36:13;8.00;;;5.47;;
66012;SDS011;52783;50.502;8.190;2023-03-16T04:38:38;12.70;;;6.53;;
66012;SDS011;52783;50.502;8.190;2023-03-16T04:41:05;14.07;;;7.20;;
66012;SDS011;52783;50.502;8.190;2023-03-16T04:43:31;17.10;;;7.18;;
66012;SDS011;52783;50.502;8.190;2023-03-16T04:45:58;15.10;;;6.32;;
66012;SDS011;52783;50.502;8.190;2023-03-16T04:48:25;11.65;;;6.65;;
66012;SDS011;52783;50.502;8.190;2023-03-16T04:50:51;13.00;;;6.75;;
66012;SDS011;52783;50.502;8.190;2023-03-16T04:53:17;18.85;;;6.68;;
66012;SDS011;52783;50.502;8.190;2023-03-16T04:55:46;15.80;;;7.88;;
66012;SDS011;52783;50.502;8.190;2023-03-16T04:58:12;17.38;;;7.70;;
66012;SDS011;52783;50.502;8.190;2023-03-16T05:00:38;16.15;;;7.72;;
66012;SDS011;52783;50.502;8.190;2023-03-16T05:03:04;11.77;;;5.70;;
66012;SDS011;52783;50.502;8.190;2023-03-16T05:05:30;12.77;;;7.22;;
66012;SDS011;52783;50.502;8.190;2023-03-16T05:07:56;12.50;;;6.30;;
66012;SDS011;52783;50.502;8.190;2023-03-16T05:10:21;17.15;;;7.05;;
66012;SDS011;52783;50.502;8.190;2023-03-16T05:12:47;11.00;;;6.57;;
66012;SDS011;52783;50.502;8.190;2023-03-16T05:15:13;13.07;;;6.55;;
66012;SDS011;52783;50.502;8.190;2023-03-16T05:17:39;12.30;;;7.40;;
66012;SDS011;52783;50.502;8.190;2023-03-16T05:20:09;17.23;;;7.57;;
66012;SDS011;52783;50.502;8.190;2023-03-16T05:22:39;17.70;;;8.98;;
66012;SDS011;52783;50.502;8.190;2023-03-16T05:25:08;14.43;;;7.75;;
66012;SDS011;52783;50.502;8.190;2023-03-16T05:27:39;19.63;;;7.88;;
66012;SDS011;52783;50.502;8.190;2023-03-16T05:30:09;14.35;;;7.45;;
66012;SDS011;52783;50.502;8.190;2023-03-16T05:32:36;12.93;;;7.50;;
66012;SDS011;52783;50.502;8.190;2023-03-16T05:35:02;13.65;;;8.02;;
66012;SDS011;52783;50.502;8.190;2023-03-16T05:37:29;14.63;;;8.02;;
66012;SDS011;52783;50.502;8.190;2023-03-16T05:39:55;10.82;;;6.72;;
66012;SDS011;52783;50.502;8.190;2023-03-16T05:42:22;16.20;;;6.82;;
66012;SDS011;52783;50.502;8.190;2023-03-16T05:44:50;13.57;;;7.10;;
66012;SDS011;52783;50.502;8.190;2023-03-16T05:47:16;11.88;;;6.93;;
66012;SDS011;52783;50.502;8.190;2023-03-16T05:49:42;13.43;;;7.50;;
66012;SDS011;52783;50.502;8.190;2023-03-16T05:52:07;11.00;;;6.25;;
66012;SDS011;52783;50.502;8.190;2023-03-16T05:54:33;9.82;;;5.68;;
66012;SDS011;52783;50.502;8.190;2023-03-16T05:56:58;8.77;;;4.95;;
66012;SDS011;52783;50.502;8.190;2023-03-16T05:59:24;13.35;;;6.72;;
66012;SDS011;52783;50.502;8.190;2023-03-16T06:01:49;17.88;;;6.18;;
66012;SDS011;52783;50.502;8.190;2023-03-16T06:04:15;16.00;;;6.38;;
66012;SDS011;52783;50.502;8.190;2023-03-16T06:06:41;12.77;;;7.03;;
66012;SDS011;52783;50.502;8.190;2023-03-16T06:09:06;10.95;;;4.45;;
66012;SDS011;52783;50.502;8.190;2023-03-16T06:11:33;13.40;;;6.10;;
66012;SDS011;52783;50.502;8.190;2023-03-16T06:13:59;10.40;;;5.80;;
66012;SDS011;52783;50.502;8.190;2023-03-16T06:16:24;8.40;;;4.72;;
66012;SDS011;52783;50.502;8.190;2023-03-16T06:18:50;7.53;;;4.20;;
66012;SDS011;52783;50.502;8.190;2023-03-16T06:21:16;12.00;;;5.35;;
66012;SDS011;52783;50.502;8.190;2023-03-16T06:23:41;13.75;;;6.03;;
66012;SDS011;52783;50.502;8.190;2023-03-16T06:26:07;9.50;;;4.78;;
66012;SDS011;52783;50.502;8.190;2023-03-16T06:28:33;9.35;;;4.43;;
66012;SDS011;52783;50.502;8.190;2023-03-16T06:30:58;12.18;;;6.25;;
66012;SDS011;52783;50.502;8.190;2023-03-16T06:33:24;10.27;;;5.22;;
66012;SDS011;52783;50.502;8.190;2023-03-16T06:35:49;13.30;;;5.40;;
66012;SDS011;52783;50.502;8.190;2023-03-16T06:38:15;10.13;;;5.30;;
66012;SDS011;52783;50.502;8.190;2023-03-16T06:40:41;13.32;;;5.85;;
66012;SDS011;52783;50.502;8.190;2023-03-16T06:43:07;14.95;;;6.22;;
66012;SDS011;52783;50.502;8.190;2023-03-16T06:45:32;12.82;;;6.00;;
66012;SDS011;52783;50.502;8.190;2023-03-16T06:47:58;8.55;;;4.47;;
66012;SDS011;52783;50.502;8.190;2023-03-16T06:50:24;12.48;;;6.13;;
66012;SDS011;52783;50.502;8.190;2023-03-16T06:52:49;12.70;;;6.22;;
66012;SDS011;52783;50.502;8.190;2023-03-16T06:55:15;9.75;;;5.93;;
66012;SDS011;52783;50.502;8.190;2023-03-16T06:57:41;9.90;;;5.90;;
66012;SDS011;52783;50.502;8.190;2023-03-16T07:00:08;16.00;;;6.05;;
66012;SDS011;52783;50.502;8.190;2023-03-16T07:02:35;10.13;;;5.68;;
66012;SDS011;52783;50.502;8.190;2023-03-16T07:05:03;9.65;;;5.88;;
66012;SDS011;52783;50.502;8.190;2023-03-16T07:07:29;10.82;;;6.38;;
66012;SDS011;52783;50.502;8.190;2023-03-16T07:09:55;10.77;;;6.18;;
66012;SDS011;52783;50.502;8.190;2023-03-16T07:12:20;16.42;;;7.07;;
66012;SDS011;52783;50.502;8.190;2023-03-16T07:14:46;11.65;;;5.97;;
66012;SDS011;52783;50.502;8.190;2023-03-16T07:17:11;16.83;;;6.05;;
66012;SDS011;52783;50.502;8.190;2023-03-16T07:19:37;12.57;;;6.45;;
66012;SDS011;52783;50.502;8.190;2023-03-16T07:22:02;14.38;;;6.55;;
66012;SDS011;52783;50.502;8.190;2023-03-16T07:24:28;9.77;;;5.80;;
66012;SDS011;52783;50.502;8.190;2023-03-16T07:26:54;14.50;;;6.90;;
66012;SDS011;52783;50.502;8.190;2023-03-16T07:29:20;13.43;;;6.22;;
66012;SDS011;52783;50.502;8.190;2023-03-16T07:31:46;12.68;;;6.30;;
66012;SDS011;52783;50.502;8.190;2023-03-16T07:34:11;15.75;;;5.53;;
66012;SDS011;52783;50.502;8.190;2023-03-16T07:36:37;8.63;;;4.47;;
66012;SDS011;52783;50.502;8.190;2023-03-16T07:39:03;8.40;;;5.10;;
66012;SDS011;52783;50.502;8.190;2023-03-16T07:41:30;7.90;;;4.45;;
66012;SDS011;52783;50.502;8.190;2023-03-16T07:43:56;8.57;;;4.72;;
66012;SDS011;52783;50.502;8.190;2023-03-16T07:46:22;10.63;;;4.80;;
66012;SDS011;52783;50.502;8.190;2023-03-16T07:48:48;9.73;;;5.53;;
66012;SDS011;52783;50.502;8.190;2023-03-16T07:51:13;8.30;;;4.88;;
66012;SDS011;52783;50.502;8.190;2023-03-16T07:53:39;8.77;;;5.00;;
66012;SDS011;52783;50.502;8.190;2023-03-16T07:56:05;12.55;;;6.32;;
66012;SDS011;52783;50.502;8.190;2023-03-16T07:58:31;10.52;;;5.63;;
66012;SDS011;52783;50.502;8.190;2023-03-16T08:00:57;10.45;;;5.82;;
66012;SDS011;52783;50.502;8.190;2023-03-16T08:03:24;11.65;;;6.05;;
66012;SDS011;52783;50.502;8.190;2023-03-16T08:05:50;13.95;;;7.22;;
66012;SDS011;52783;50.502;8.190;2023-03-16T08:08:16;13.48;;;6.50;;
66012;SDS011;52783;50.502;8.190;2023-03-16T08:10:42;7.60;;;5.00;;
66012;SDS011;52783;50.502;8.190;2023-03-16T08:13:08;16.52;;;5.88;;
66012;SDS011;52783;50.502;8.190;2023-03-16T08:15:33;11.30;;;5.88;;
66012;SDS011;52783;50.502;8.190;2023-03-16T08:17:59;11.80;;;5.35;;
66012;SDS011;52783;50.502;8.190;2023-03-16T08:20:29;7.75;;;4.68;;
66012;SDS011;52783;50.502;8.190;2023-03-16T08:22:55;6.25;;;4.32;;
66012;SDS011;52783;50.502;8.190;2023-03-16T08:25:20;11.45;;;5.47;;
66012;SDS011;52783;50.502;8.190;2023-03-16T08:27:46;8.40;;;5.15;;
66012;SDS011;52783;50.502;8.190;2023-03-16T08:30:12;8.55;;;5.40;;
66012;SDS011;52783;50.502;8.190;2023-03-16T08:32:39;10.43;;;5.50;;
66012;SDS011;52783;50.502;8.190;2023-03-16T08:35:06;8.75;;;5.28;;
66012;SDS011;52783;50.502;8.190;2023-03-16T08:37:33;9.05;;;5.32;;
66012;SDS011;52783;50.502;8.190;2023-03-16T08:39:59;6.82;;;4.60;;
66012;SDS011;52783;50.502;8.190;2023-03-16T08:42:25;10.05;;;4.40;;
66012;SDS011;52783;50.502;8.190;2023-03-16T08:44:52;9.93;;;5.07;;
66012;SDS011;52783;50.502;8.190;2023-03-16T08:47:19;9.30;;;4.60;;
66012;SDS011;52783;50.502;8.190;2023-03-16T08:49:45;8.00;;;4.85;;
66012;SDS011;52783;50.502;8.190;2023-03-16T08:52:11;10.10;;;4.60;;
66012;SDS011;52783;50.502;8.190;2023-03-16T08:54:37;7.40;;;4.03;;
66012;SDS011;52783;50.502;8.190;2023-03-16T08:57:03;6.72;;;3.80;;
66012;SDS011;52783;50.502;8.190;2023-03-16T08:59:28;6.22;;;3.92;;
66012;SDS011;52783;50.502;8.190;2023-03-16T09:01:54;7.68;;;3.28;;
66012;SDS011;52783;50.502;8.190;2023-03-16T09:04:20;5.22;;;3.30;;
66012;SDS011;52783;50.502;8.190;2023-03-16T09:06:46;7.18;;;3.40;;
66012;SDS011;52783;50.502;8.190;2023-03-16T09:09:12;4.88;;;3.30;;
66012;SDS011;52783;50.502;8.190;2023-03-16T09:11:37;4.60;;;2.97;;
66012;SDS011;52783;50.502;8.190;2023-03-16T09:14:04;3.97;;;3.30;;
66012;SDS011;52783;50.502;8.190;2023-03-16T09:16:30;8.65;;;3.50;;
66012;SDS011;52783;50.502;8.190;2023-03-16T09:18:56;4.25;;;3.33;;
66012;SDS011;52783;50.502;8.190;2023-03-16T09:21:22;5.22;;;3.50;;
66012;SDS011;52783;50.502;8.190;2023-03-16T09:23:48;6.30;;;3.60;;
66012;SDS011;52783;50.502;8.190;2023-03-16T09:26:13;5.13;;;3.50;;
66012;SDS011;52783;50.502;8.190;2023-03-16T09:28:40;8.93;;;3.58;;
66012;SDS011;52783;50.502;8.190;2023-03-16T09:31:06;6.32;;;3.22;;
66012;SDS011;52783;50.502;8.190;2023-03-16T09:33:33;5.30;;;3.50;;
66012;SDS011;52783;50.502;8.190;2023-03-16T09:36:00;5.18;;;3.45;;
66012;SDS011;52783;50.502;8.190;2023-03-16T09:38:27;6.25;;;4.10;;
66012;SDS011;52783;50.502;8.190;2023-03-16T09:40:57;6.75;;;3.85;;
66012;SDS011;52783;50.502;8.190;2023-03-16T09:43:43;7.28;;;3.97;;
66012;SDS011;52783;50.502;8.190;2023-03-16T09:46:24;6.72;;;3.65;;
66012;SDS011;52783;50.502;8.190;2023-03-16T09:48:56;9.10;;;4.13;;
66012;SDS011;52783;50.502;8.190;2023-03-16T09:54:27;5.63;;;3.70;;
66012;SDS011;52783;50.502;8.190;2023-03-16T09:57:25;7.88;;;3.53;;
66012;SDS011;52783;50.502;8.190;2023-03-16T09:59:54;10.88;;;3.60;;
66012;SDS011;52783;50.502;8.190;2023-03-16T10:05:11;6.47;;;3.88;;
66012;SDS011;52783;50.502;8.190;2023-03-16T10:08:21;4.85;;;3.25;;
66012;SDS011;52783;50.502;8.190;2023-03-16T10:13:38;6.55;;;3.65;;
66012;SDS011;52783;50.502;8.190;2023-03-16T10:16:15;6.22;;;3.65;;
66012;SDS011;52783;50.502;8.190;2023-03-16T10:18:49;6.22;;;3.80;;
66012;SDS011;52783;50.502;8.190;2023-03-16T10:21:22;6.30;;;4.10;;
66012;SDS011;52783;50.502;8.190;2023-03-16T10:23:48;5.88;;;3.78;;
66012;SDS011;52783;50.502;8.190;2023-03-16T10:26:20;5.85;;;3.97;;
66012;SDS011;52783;50.502;8.190;2023-03-16T10:28:50;7.05;;;4.20;;
66012;SDS011;52783;50.502;8.190;2023-03-16T10:31:17;4.47;;;3.40;;
66012;SDS011;52783;50.502;8.190;2023-03-16T10:33:46;5.80;;;3.85;;
66012;SDS011;52783;50.502;8.190;2023-03-16T10:36:30;7.43;;;3.60;;
66012;SDS011;52783;50.502;8.190;2023-03-16T10:41:27;5.22;;;3.20;;
66012;SDS011;52783;50.502;8.190;2023-03-16T10:46:37;6.55;;;3.55;;
66012;SDS011;52783;50.502;8.190;2023-03-16T10:49:16;7.82;;;3.97;;
66012;SDS011;52783;50.502;8.190;2023-03-16T10:51:51;4.00;;;3.50;;
66012;SDS011;52783;50.502;8.190;2023-03-16T10:54:27;6.13;;;3.58;;
66012;SDS011;52783;50.502;8.190;2023-03-16T10:56:56;6.90;;;3.58;;
66012;SDS011;52783;50.502;8.190;2023-03-16T11:02:02;4.03;;;3.10;;
66012;SDS011;52783;50.502;8.190;2023-03-16T11:04:40;5.88;;;3.35;;
66012;SDS011;52783;50.502;8.190;2023-03-16T11:07:06;5.03;;;2.42;;
66012;SDS011;52783;50.502;8.190;2023-03-16T11:09:34;3.55;;;2.60;;
66012;SDS011;52783;50.502;8.190;2023-03-16T11:12:46;2.63;;;2.33;;
66012;SDS011;52783;50.502;8.190;2023-03-16T11:14:52;5.07;;;2.72;;
66012;SDS011;52783;50.502;8.190;2023-03-16T11:17:33;2.80;;;2.17;;
66012;SDS011;52783;50.502;8.190;2023-03-16T11:20:15;3.83;;;2.55;;
66012;SDS011;52783;50.502;8.190;2023-03-16T11:22:47;5.55;;;2.63;;
66012;SDS011;52783;50.502;8.190;2023-03-16T11:25:13;7.10;;;2.80;;
66012;SDS011;52783;50.502;8.190;2023-03-16T11:28:04;2.03;;;1.83;;
66012;SDS011;52783;50.502;8.190;2023-03-16T11:33:13;4.28;;;2.15;;
66012;SDS011;52783;50.502;8.190;2023-03-16T11:38:50;2.88;;;2.22;;
66012;SDS011;52783;50.502;8.190;2023-03-16T11:50:04;3.53;;;2.50;;
66012;SDS011;52783;50.502;8.190;2023-03-16T11:52:43;3.83;;;2.58;;
66012;SDS011;52783;50.502;8.190;2023-03-16T11:55:24;7.38;;;2.72;;
66012;SDS011;52783;50.502;8.190;2023-03-16T11:58:03;4.28;;;2.50;;
66012;SDS011;52783;50.502;8.190;2023-03-16T12:03:29;4.88;;;2.75;;
66012;SDS011;52783;50.502;8.190;2023-03-16T12:06:22;3.90;;;2.67;;
66012;SDS011;52783;50.502;8.190;2023-03-16T12:09:17;6.80;;;3.13;;
66012;SDS011;52783;50.502;8.190;2023-03-16T12:12:09;6.72;;;2.85;;
66012;SDS011;52783;50.502;8.190;2023-03-16T12:15:07;5.78;;;3.08;;
66012;SDS011;52783;50.502;8.190;2023-03-16T12:17:52;3.92;;;2.78;;
66012;SDS011;52783;50.502;8.190;2023-03-16T12:20:26;7.30;;;3.07;;
66012;SDS011;52783;50.502;8.190;2023-03-16T12:23:03;6.50;;;2.92;;
66012;SDS011;52783;50.502;8.190;2023-03-16T12:25:35;7.32;;;3.22;;
66012;SDS011;52783;50.502;8.190;2023-03-16T12:28:04;3.83;;;2.78;;
66012;SDS011;52783;50.502;8.190;2023-03-16T12:36:01;5.18;;;3.30;;
66012;SDS011;52783;50.502;8.190;2023-03-16T12:38:31;5.60;;;3.15;;
66012;SDS011;52783;50.502;8.190;2023-03-16T12:49:09;6.13;;;3.15;;
66012;SDS011;52783;50.502;8.190;2023-03-16T12:51:36;5.53;;;2.80;;
66012;SDS011;52783;50.502;8.190;2023-03-16T12:54:20;4.18;;;2.22;;
66012;SDS011;52783;50.502;8.190;2023-03-16T12:56:48;6.38;;;3.00;;
66012;SDS011;52783;50.502;8.190;2023-03-16T12:59:16;3.25;;;2.45;;
66012;SDS011;52783;50.502;8.190;2023-03-16T13:01:47;5.63;;;3.10;;
66012;SDS011;52783;50.502;8.190;2023-03-16T13:04:31;4.25;;;2.88;;
66012;SDS011;52783;50.502;8.190;2023-03-16T13:07:02;15.07;;;3.70;;
66012;SDS011;52783;50.502;8.190;2023-03-16T13:09:33;5.00;;;2.30;;
66012;SDS011;52783;50.502;8.190;2023-03-16T13:12:06;3.45;;;2.50;;
66012;SDS011;52783;50.502;8.190;2023-03-16T13:14:41;6.72;;;2.60;;
66012;SDS011;52783;50.502;8.190;2023-03-16T13:19:40;4.78;;;2.75;;
66012;SDS011;52783;50.502;8.190;2023-03-16T13:24:48;5.68;;;2.78;;
66012;SDS011;52783;50.502;8.190;2023-03-16T13:27:34;3.45;;;2.70;;
66012;SDS011;52783;50.502;8.190;2023-03-16T13:30:12;4.18;;;2.53;;
66012;SDS011;52783;50.502;8.190;2023-03-16T13:32:46;6.82;;;2.78;;
66012;SDS011;52783;50.502;8.190;2023-03-16T13:35:14;3.25;;;2.63;;
66012;SDS011;52783;50.502;8.190;2023-03-16T13:37:41;4.53;;;2.38;;
66012;SDS011;52783;50.502;8.190;2023-03-16T13:40:21;7.25;;;3.05;;
66012;SDS011;52783;50.502;8.190;2023-03-16T13:42:53;6.25;;;2.60;;
66012;SDS011;52783;50.502;8.190;2023-03-16T13:45:22;5.18;;;2.40;;
66012;SDS011;52783;50.502;8.190;2023-03-16T13:48:00;5.10;;;2.90;;
66012;SDS011;52783;50.502;8.190;2023-03-16T13:50:30;7.13;;;2.78;;
66012;SDS011;52783;50.502;8.190;2023-03-16T13:52:58;4.18;;;2.50;;
66012;SDS011;52783;50.502;8.190;2023-03-16T13:55:35;3.60;;;2.47;;
66012;SDS011;52783;50.502;8.190;2023-03-16T13:58:02;5.75;;;2.65;;
66012;SDS011;52783;50.502;8.190;2023-03-16T14:00:33;4.70;;;2.40;;
66012;SDS011;52783;50.502;8.190;2023-03-16T14:05:38;3.35;;;2.40;;
66012;SDS011;52783;50.502;8.190;2023-03-16T14:08:11;3.42;;;2.65;;
66012;SDS011;52783;50.502;8.190;2023-03-16T14:10:40;3.13;;;2.45;;
66012;SDS011;52783;50.502;8.190;2023-03-16T14:15:35;4.60;;;2.22;;
66012;SDS011;52783;50.502;8.190;2023-03-16T14:18:15;3.20;;;2.03;;
66012;SDS011;52783;50.502;8.190;2023-03-16T14:20:46;6.03;;;2.30;;
66012;SDS011;52783;50.502;8.190;2023-03-16T14:23:20;2.65;;;2.10;;
66012;SDS011;52783;50.502;8.190;2023-03-16T14:26:02;5.13;;;2.10;;
66012;SDS011;52783;50.502;8.190;2023-03-16T14:28:32;3.40;;;2.33;;
66012;SDS011;52783;50.502;8.190;2023-03-16T14:31:05;3.75;;;2.55;;
66012;SDS011;52783;50.502;8.190;2023-03-16T14:33:35;8.60;;;2.58;;
66012;SDS011;52783;50.502;8.190;2023-03-16T14:36:09;3.80;;;2.63;;
66012;SDS011;52783;50.502;8.190;2023-03-16T14:38:44;6.43;;;2.50;;
66012;SDS011;52783;50.502;8.190;2023-03-16T14:41:23;3.58;;;2.60;;
66012;SDS011;52783;50.502;8.190;2023-03-16T14:43:51;4.45;;;3.05;;
66012;SDS011;52783;50.502;8.190;2023-03-16T14:46:27;2.50;;;2.30;;
66012;SDS011;52783;50.502;8.190;2023-03-16T14:49:37;2.55;;;2.30;;
66012;SDS011;52783;50.502;8.190;2023-03-16T14:51:45;3.92;;;2.78;;
66012;SDS011;52783;50.502;8.190;2023-03-16T14:54:17;2.97;;;2.60;;
66012;SDS011;52783;50.502;8.190;2023-03-16T14:56:49;3.47;;;3.10;;
66012;SDS011;52783;50.502;8.190;2023-03-16T14:59:16;3.80;;;2.88;;
66012;SDS011;52783;50.502;8.190;2023-03-16T15:01:43;4.25;;;3.08;;
66012;SDS011;52783;50.502;8.190;2023-03-16T15:04:11;3.45;;;2.50;;
66012;SDS011;52783;50.502;8.190;2023-03-16T15:06:39;3.58;;;2.92;;
66012;SDS011;52783;50.502;8.190;2023-03-16T15:09:04;5.70;;;2.90;;
66012;SDS011;52783;50.502;8.190;2023-03-16T15:11:31;4.10;;;3.00;;
66012;SDS011;52783;50.502;8.190;2023-03-16T15:13:58;4.20;;;2.97;;
66012;SDS011;52783;50.502;8.190;2023-03-16T15:16:38;5.75;;;3.30;;
66012;SDS011;52783;50.502;8.190;2023-03-16T15:19:06;5.32;;;2.63;;
66012;SDS011;52783;50.502;8.190;2023-03-16T15:21:32;6.40;;;3.25;;
66012;SDS011;52783;50.502;8.190;2023-03-16T15:23:58;7.03;;;3.83;;
66012;SDS011;52783;50.502;8.190;2023-03-16T15:26:24;6.88;;;3.97;;
66012;SDS011;52783;50.502;8.190;2023-03-16T15:28:52;5.75;;;3.40;;
66012;SDS011;52783;50.502;8.190;2023-03-16T15:31:19;4.88;;;3.65;;
66012;SDS011;52783;50.502;8.190;2023-03-16T15:33:45;6.32;;;3.67;;
66012;SDS011;52783;50.502;8.190;2023-03-16T15:36:15;6.30;;;3.67;;
66012;SDS011;52783;50.502;8.190;2023-03-16T15:38:46;6.68;;;3.50;;
66012;SDS011;52783;50.502;8.190;2023-03-16T15:41:13;8.70;;;3.63;;
66012;SDS011;52783;50.502;8.190;2023-03-16T15:43:39;8.40;;;3.92;;
66012;SDS011;52783;50.502;8.190;2023-03-16T15:46:05;5.03;;;3.58;;
66012;SDS011;52783;50.502;8.190;2023-03-16T15:48:31;9.10;;;4.28;;
66012;SDS011;52783;50.502;8.190;2023-03-16T15:50:58;6.07;;;3.67;;
66012;SDS011;52783;50.502;8.190;2023-03-16T15:53:34;9.55;;;4.10;;
66012;SDS011;52783;50.502;8.190;2023-03-16T15:56:10;9.98;;;3.85;;
66012;SDS011;52783;50.502;8.190;2023-03-16T15:58:39;6.70;;;4.00;;
66012;SDS011;52783;50.502;8.190;2023-03-16T16:01:06;7.50;;;4.30;;
66012;SDS011;52783;50.502;8.190;2023-03-16T16:03:37;8.57;;;3.75;;